sensor_id;sensor_type;location;lat;lon;timestamp;pressure;altitude;pressure_sealevel;temperature;humidity
34983;BME280;21187;50.976;13.720;2022-09-29T00:02:44;96741.38;;;10.22;55.74
34983;BME280;21187;50.976;13.720;2022-09-29T00:07:46;96741.38;;;10.29;55.69
34983;BME280;21187;50.976;13.720;2022-09-29T00:12:48;96749.13;;;10.34;55.77
34983;BME280;21187;50.976;13.720;2022-09-29T00:17:50;96756.88;;;10.32;55.29
34983;BME280;21187;50.976;13.720;2022-09-29T00:23:12;96755.28;;;10.24;55.44
34983;BME280;21187;50.976;13.720;2022-09-29T00:28:14;96756.06;;;10.21;55.93
34983;BME280;21187;50.976;13.720;2022-09-29T00:33:16;96760.69;;;10.24;55.52
34983;BME280;21187;50.976;13.720;2022-09-29T00:38:18;96756.84;;;10.25;55.44
34983;BME280;21187;50.976;13.720;2022-09-29T00:43:48;96756.06;;;10.21;55.20
34983;BME280;21187;50.976;13.720;2022-09-29T00:48:46;96757.59;;;10.22;55.21
34983;BME280;21187;50.976;13.720;2022-09-29T00:53:48;96751.78;;;10.16;55.71
34983;BME280;21187;50.976;13.720;2022-09-29T00:58:57;96745.56;;;10.12;55.68
34983;BME280;21187;50.976;13.720;2022-09-29T01:04:12;96742.88;;;10.08;56.18
34983;BME280;21187;50.976;13.720;2022-09-29T01:09:19;96749.06;;;10.12;55.87
34983;BME280;21187;50.976;13.720;2022-09-29T01:14:24;96750.59;;;10.13;55.63
34983;BME280;21187;50.976;13.720;2022-09-29T01:30:05;96766.09;;;10.16;55.60
34983;BME280;21187;50.976;13.720;2022-09-29T01:35:29;96769.16;;;10.11;55.05
34983;BME280;21187;50.976;13.720;2022-09-29T01:40:53;96769.53;;;10.13;55.08
34983;BME280;21187;50.976;13.720;2022-09-29T01:46:03;96770.72;;;10.12;55.34
34983;BME280;21187;50.976;13.720;2022-09-29T01:51:12;96776.88;;;10.13;54.76
34983;BME280;21187;50.976;13.720;2022-09-29T01:56:21;96769.16;;;10.11;54.71
34983;BME280;21187;50.976;13.720;2022-09-29T02:01:31;96775.28;;;10.01;55.12
34983;BME280;21187;50.976;13.720;2022-09-29T02:06:46;96777.53;;;9.88;55.12
34983;BME280;21187;50.976;13.720;2022-09-29T02:11:51;96772.09;;;9.77;54.66
34983;BME280;21187;50.976;13.720;2022-09-29T02:17:00;96766.59;;;9.63;54.74
34983;BME280;21187;50.976;13.720;2022-09-29T02:22:04;96771.97;;;9.56;54.90
34983;BME280;21187;50.976;13.720;2022-09-29T02:27:06;96783.53;;;9.53;55.23
34983;BME280;21187;50.976;13.720;2022-09-29T02:32:08;96783.56;;;9.56;55.14
34983;BME280;21187;50.976;13.720;2022-09-29T02:42:44;96790.56;;;9.64;55.11
34983;BME280;21187;50.976;13.720;2022-09-29T02:58:48;96795.31;;;9.82;54.75
34983;BME280;21187;50.976;13.720;2022-09-29T03:03:52;96792.22;;;9.83;54.72
34983;BME280;21187;50.976;13.720;2022-09-29T03:08:54;96791.44;;;9.87;54.61
34983;BME280;21187;50.976;13.720;2022-09-29T03:13:56;96791.84;;;9.92;55.38
34983;BME280;21187;50.976;13.720;2022-09-29T03:18:58;96793.03;;;9.95;55.24
34983;BME280;21187;50.976;13.720;2022-09-29T03:24:00;96793.47;;;10.01;54.91
34983;BME280;21187;50.976;13.720;2022-09-29T03:29:02;96793.09;;;10.06;55.38
34983;BME280;21187;50.976;13.720;2022-09-29T03:34:04;96797.75;;;10.09;55.23
34983;BME280;21187;50.976;13.720;2022-09-29T03:39:07;96805.09;;;10.08;55.35
34983;BME280;21187;50.976;13.720;2022-09-29T03:44:08;96815.16;;;10.11;55.54
34983;BME280;21187;50.976;13.720;2022-09-29T03:49:11;96809.72;;;10.11;55.46
34983;BME280;21187;50.976;13.720;2022-09-29T03:54:13;96808.59;;;10.12;55.34
34983;BME280;21187;50.976;13.720;2022-09-29T03:59:15;96812.47;;;10.19;55.23
34983;BME280;21187;50.976;13.720;2022-09-29T04:04:17;96817.50;;;10.24;55.35
34983;BME280;21187;50.976;13.720;2022-09-29T04:09:18;96809.81;;;10.29;55.39
34983;BME280;21187;50.976;13.720;2022-09-29T04:14:21;96811.00;;;10.32;55.66
34983;BME280;21187;50.976;13.720;2022-09-29T04:19:22;96814.06;;;10.34;55.14
34983;BME280;21187;50.976;13.720;2022-09-29T04:24:25;96812.50;;;10.33;55.74
34983;BME280;21187;50.976;13.720;2022-09-29T04:29:27;96820.25;;;10.35;55.70
34983;BME280;21187;50.976;13.720;2022-09-29T04:34:29;96811.03;;;10.39;55.31
34983;BME280;21187;50.976;13.720;2022-09-29T04:39:31;96818.00;;;10.40;55.58
34983;BME280;21187;50.976;13.720;2022-09-29T04:44:33;96823.44;;;10.44;55.89
34983;BME280;21187;50.976;13.720;2022-09-29T04:49:34;96820.72;;;10.47;55.64
34983;BME280;21187;50.976;13.720;2022-09-29T04:54:36;96827.28;;;10.50;55.96
34983;BME280;21187;50.976;13.720;2022-09-29T04:59:38;96828.09;;;10.51;55.58
34983;BME280;21187;50.976;13.720;2022-09-29T05:04:40;96838.56;;;10.56;56.04
34983;BME280;21187;50.976;13.720;2022-09-29T05:09:42;96838.16;;;10.61;55.57
34983;BME280;21187;50.976;13.720;2022-09-29T05:14:44;96838.19;;;10.68;55.61
34983;BME280;21187;50.976;13.720;2022-09-29T05:19:46;96838.97;;;10.72;55.73
34983;BME280;21187;50.976;13.720;2022-09-29T05:24:47;96839.38;;;10.74;55.58
34983;BME280;21187;50.976;13.720;2022-09-29T05:29:49;96834.34;;;10.80;55.75
34983;BME280;21187;50.976;13.720;2022-09-29T05:34:51;96846.72;;;10.85;55.79
34983;BME280;21187;50.976;13.720;2022-09-29T05:39:53;96844.81;;;10.92;55.54
34983;BME280;21187;50.976;13.720;2022-09-29T05:44:54;96852.19;;;10.95;55.52
34983;BME280;21187;50.976;13.720;2022-09-29T05:49:56;96841.34;;;10.99;55.66
34983;BME280;21187;50.976;13.720;2022-09-29T05:54:58;96835.91;;;10.99;55.41
34983;BME280;21187;50.976;13.720;2022-09-29T06:00:01;96839.03;;;11.05;55.31
34983;BME280;21187;50.976;13.720;2022-09-29T06:05:11;96840.97;;;11.04;55.94
34983;BME280;21187;50.976;13.720;2022-09-29T06:10:13;96848.34;;;11.07;55.50
34983;BME280;21187;50.976;13.720;2022-09-29T06:15:15;96846.78;;;11.10;55.50
34983;BME280;21187;50.976;13.720;2022-09-29T06:20:17;96853.75;;;11.14;55.39
34983;BME280;21187;50.976;13.720;2022-09-29T06:25:19;96855.31;;;11.15;55.68
34983;BME280;21187;50.976;13.720;2022-09-29T06:30:21;96852.22;;;11.10;55.80
34983;BME280;21187;50.976;13.720;2022-09-29T06:35:23;96847.53;;;11.18;55.49
34983;BME280;21187;50.976;13.720;2022-09-29T06:40:43;96861.50;;;11.27;55.78
34983;BME280;21187;50.976;13.720;2022-09-29T06:45:45;96864.59;;;11.32;55.67
34983;BME280;21187;50.976;13.720;2022-09-29T06:50:47;96854.53;;;11.47;55.71
34983;BME280;21187;50.976;13.720;2022-09-29T06:56:04;96856.09;;;11.63;55.19
34983;BME280;21187;50.976;13.720;2022-09-29T07:01:06;96857.63;;;11.71;55.29
34983;BME280;21187;50.976;13.720;2022-09-29T07:06:09;96852.97;;;11.82;55.22
34983;BME280;21187;50.976;13.720;2022-09-29T07:11:27;96853.69;;;12.12;54.76
34983;BME280;21187;50.976;13.720;2022-09-29T07:16:29;96849.75;;;12.31;54.73
34983;BME280;21187;50.976;13.720;2022-09-29T07:21:31;96850.38;;;12.64;54.60
34983;BME280;21187;50.976;13.720;2022-09-29T07:26:33;96844.84;;;12.86;54.20
34983;BME280;21187;50.976;13.720;2022-09-29T07:31:35;96866.13;;;12.98;54.22
34983;BME280;21187;50.976;13.720;2022-09-29T07:36:50;96868.75;;;13.12;54.19
34983;BME280;21187;50.976;13.720;2022-09-29T07:41:52;96867.91;;;13.23;54.04
34983;BME280;21187;50.976;13.720;2022-09-29T07:46:55;96883.75;;;13.35;53.94
34983;BME280;21187;50.976;13.720;2022-09-29T07:51:57;96892.22;;;13.52;53.88
34983;BME280;21187;50.976;13.720;2022-09-29T07:56:59;96889.88;;;13.99;53.52
34983;BME280;21187;50.976;13.720;2022-09-29T08:02:03;96892.66;;;14.30;52.55
34983;BME280;21187;50.976;13.720;2022-09-29T08:07:05;96887.72;;;14.56;51.45
34983;BME280;21187;50.976;13.720;2022-09-29T08:12:07;96887.94;;;14.69;51.70
34983;BME280;21187;50.976;13.720;2022-09-29T08:17:09;96891.47;;;14.69;51.53
34983;BME280;21187;50.976;13.720;2022-09-29T08:22:23;96896.91;;;14.69;51.20
34983;BME280;21187;50.976;13.720;2022-09-29T08:27:24;96900.63;;;14.83;51.01
34983;BME280;21187;50.976;13.720;2022-09-29T08:32:26;96902.44;;;14.93;49.90
34983;BME280;21187;50.976;13.720;2022-09-29T08:37:28;96899.47;;;15.11;50.22
34983;BME280;21187;50.976;13.720;2022-09-29T08:42:47;96911.97;;;15.36;50.03
34983;BME280;21187;50.976;13.720;2022-09-29T08:47:55;96905.91;;;15.75;49.74
34983;BME280;21187;50.976;13.720;2022-09-29T08:53:07;96918.47;;;15.96;48.02
34983;BME280;21187;50.976;13.720;2022-09-29T08:58:25;96921.97;;;16.21;48.31
34983;BME280;21187;50.976;13.720;2022-09-29T09:24:43;96920.34;;;16.84;46.66
34983;BME280;21187;50.976;13.720;2022-09-29T09:29:49;96929.84;;;16.99;46.18
34983;BME280;21187;50.976;13.720;2022-09-29T09:40:26;96932.88;;;17.58;45.31
34983;BME280;21187;50.976;13.720;2022-09-29T09:45:34;96921.66;;;17.69;45.52
34983;BME280;21187;50.976;13.720;2022-09-29T09:50:40;96934.81;;;17.57;45.32
34983;BME280;21187;50.976;13.720;2022-09-29T09:55:49;96934.22;;;17.50;45.53
34983;BME280;21187;50.976;13.720;2022-09-29T10:01:04;96929.59;;;17.46;45.28
34983;BME280;21187;50.976;13.720;2022-09-29T10:06:13;96941.56;;;17.36;45.62
34983;BME280;21187;50.976;13.720;2022-09-29T10:16:23;96952.28;;;17.10;45.24
34983;BME280;21187;50.976;13.720;2022-09-29T10:31:39;96957.88;;;16.63;46.08
34983;BME280;21187;50.976;13.720;2022-09-29T10:42:01;96968.13;;;16.59;46.22
34983;BME280;21187;50.976;13.720;2022-09-29T10:47:06;96965.59;;;16.68;46.03
34983;BME280;21187;50.976;13.720;2022-09-29T10:52:17;96971.22;;;17.01;45.76
34983;BME280;21187;50.976;13.720;2022-09-29T10:57:26;96966.84;;;17.24;45.32
34983;BME280;21187;50.976;13.720;2022-09-29T11:02:35;96975.91;;;17.01;44.97
34983;BME280;21187;50.976;13.720;2022-09-29T11:07:44;96976.53;;;16.88;45.50
34983;BME280;21187;50.976;13.720;2022-09-29T11:12:47;96975.34;;;16.89;45.13
34983;BME280;21187;50.976;13.720;2022-09-29T11:17:51;96971.78;;;16.92;45.20
34983;BME280;21187;50.976;13.720;2022-09-29T11:50:01;96982.97;;;17.38;44.50
34983;BME280;21187;50.976;13.720;2022-09-29T12:00:17;96974.94;;;17.64;44.49
34983;BME280;21187;50.976;13.720;2022-09-29T12:05:24;96976.66;;;17.74;44.27
34983;BME280;21187;50.976;13.720;2022-09-29T12:16:29;96984.19;;;17.87;44.12
34983;BME280;21187;50.976;13.720;2022-09-29T12:21:45;96983.22;;;17.97;43.98
34983;BME280;21187;50.976;13.720;2022-09-29T12:26:52;96984.69;;;18.02;43.91
34983;BME280;21187;50.976;13.720;2022-09-29T12:31:55;96987.56;;;17.94;43.74
34983;BME280;21187;50.976;13.720;2022-09-29T12:53:06;96999.94;;;17.83;43.55
34983;BME280;21187;50.976;13.720;2022-09-29T12:58:21;97005.41;;;17.83;43.48
34983;BME280;21187;50.976;13.720;2022-09-29T13:25:21;97003.03;;;17.85;44.21
34983;BME280;21187;50.976;13.720;2022-09-29T13:30:29;97013.00;;;17.95;44.05
34983;BME280;21187;50.976;13.720;2022-09-29T13:35:42;97015.91;;;18.04;43.90
34983;BME280;21187;50.976;13.720;2022-09-29T13:41:12;97009.75;;;18.33;43.77
34983;BME280;21187;50.976;13.720;2022-09-29T14:02:01;97005.75;;;19.77;41.82
34983;BME280;21187;50.976;13.720;2022-09-29T14:07:40;96999.41;;;20.06;41.11
34983;BME280;21187;50.976;13.720;2022-09-29T14:12:46;96997.38;;;20.20;40.88
34983;BME280;21187;50.976;13.720;2022-09-29T14:17:57;96988.59;;;20.25;40.79
34983;BME280;21187;50.976;13.720;2022-09-29T14:23:06;96989.69;;;20.15;40.74
34983;BME280;21187;50.976;13.720;2022-09-29T14:28:11;97005.56;;;19.85;40.67
34983;BME280;21187;50.976;13.720;2022-09-29T14:33:25;97022.22;;;19.65;40.81
34983;BME280;21187;50.976;13.720;2022-09-29T14:38:40;97013.13;;;19.68;40.76
34983;BME280;21187;50.976;13.720;2022-09-29T14:43:46;97020.69;;;19.63;40.67
34983;BME280;21187;50.976;13.720;2022-09-29T14:49:17;97024.66;;;19.50;40.82
34983;BME280;21187;50.976;13.720;2022-09-29T15:00:01;97036.84;;;19.06;41.29
34983;BME280;21187;50.976;13.720;2022-09-29T15:05:30;97034.84;;;18.77;41.39
34983;BME280;21187;50.976;13.720;2022-09-29T15:10:39;97043.97;;;18.58;41.77
34983;BME280;21187;50.976;13.720;2022-09-29T15:15:42;97039.94;;;18.46;41.54
34983;BME280;21187;50.976;13.720;2022-09-29T15:20:59;97056.50;;;18.42;41.69
34983;BME280;21187;50.976;13.720;2022-09-29T15:26:03;97056.66;;;18.35;42.05
34983;BME280;21187;50.976;13.720;2022-09-29T15:31:09;97064.03;;;18.22;42.15
34983;BME280;21187;50.976;13.720;2022-09-29T15:36:36;97076.00;;;17.95;42.60
34983;BME280;21187;50.976;13.720;2022-09-29T15:41:38;97090.06;;;17.77;42.77
34983;BME280;21187;50.976;13.720;2022-09-29T15:46:49;97084.66;;;17.73;42.87
34983;BME280;21187;50.976;13.720;2022-09-29T15:57:03;97097.53;;;17.56;43.27
34983;BME280;21187;50.976;13.720;2022-09-29T16:07:33;97117.06;;;17.38;43.39
34983;BME280;21187;50.976;13.720;2022-09-29T16:12:51;97121.94;;;17.27;43.62
34983;BME280;21187;50.976;13.720;2022-09-29T16:17:55;97135.91;;;17.12;43.90
34983;BME280;21187;50.976;13.720;2022-09-29T16:28:26;97151.75;;;17.01;44.13
34983;BME280;21187;50.976;13.720;2022-09-29T16:33:28;97160.47;;;16.92;44.32
34983;BME280;21187;50.976;13.720;2022-09-29T16:38:33;97163.97;;;16.93;44.59
34983;BME280;21187;50.976;13.720;2022-09-29T16:43:36;97168.38;;;16.87;44.64
34983;BME280;21187;50.976;13.720;2022-09-29T16:48:43;97164.56;;;16.80;44.54
34983;BME280;21187;50.976;13.720;2022-09-29T16:53:47;97169.72;;;16.75;44.78
34983;BME280;21187;50.976;13.720;2022-09-29T16:59:19;97173.81;;;16.63;44.93
34983;BME280;21187;50.976;13.720;2022-09-29T17:04:21;97194.59;;;16.57;45.14
34983;BME280;21187;50.976;13.720;2022-09-29T17:09:24;97187.69;;;16.49;45.34
34983;BME280;21187;50.976;13.720;2022-09-29T17:14:27;97210.47;;;16.38;45.47
34983;BME280;21187;50.976;13.720;2022-09-29T17:19:31;97203.69;;;16.19;45.76
34983;BME280;21187;50.976;13.720;2022-09-29T17:24:33;97209.22;;;16.16;45.63
34983;BME280;21187;50.976;13.720;2022-09-29T17:29:35;97204.94;;;16.14;45.94
34983;BME280;21187;50.976;13.720;2022-09-29T17:34:37;97208.50;;;16.11;46.05
34983;BME280;21187;50.976;13.720;2022-09-29T17:39:39;97209.31;;;16.08;45.86
34983;BME280;21187;50.976;13.720;2022-09-29T17:44:40;97216.44;;;16.02;45.73
34983;BME280;21187;50.976;13.720;2022-09-29T17:49:45;97217.69;;;15.94;46.07
34983;BME280;21187;50.976;13.720;2022-09-29T17:54:51;97226.94;;;15.69;46.24
34983;BME280;21187;50.976;13.720;2022-09-29T17:59:53;97218.38;;;15.63;46.47
34983;BME280;21187;50.976;13.720;2022-09-29T18:04:55;97226.22;;;15.61;46.18
34983;BME280;21187;50.976;13.720;2022-09-29T18:09:57;97219.63;;;15.59;46.17
34983;BME280;21187;50.976;13.720;2022-09-29T18:14:59;97216.38;;;15.33;45.82
34983;BME280;21187;50.976;13.720;2022-09-29T18:20:18;97223.19;;;15.10;45.93
34983;BME280;21187;50.976;13.720;2022-09-29T18:25:21;97218.19;;;15.05;46.16
34983;BME280;21187;50.976;13.720;2022-09-29T18:30:26;97216.69;;;14.97;45.91
34983;BME280;21187;50.976;13.720;2022-09-29T18:35:31;97208.44;;;15.04;45.80
34983;BME280;21187;50.976;13.720;2022-09-29T18:40:34;97208.75;;;15.13;45.53
34983;BME280;21187;50.976;13.720;2022-09-29T18:45:37;97211.97;;;15.01;45.83
34983;BME280;21187;50.976;13.720;2022-09-29T18:50:43;97216.63;;;15.04;45.64
34983;BME280;21187;50.976;13.720;2022-09-29T18:55:45;97225.06;;;15.21;45.64
34983;BME280;21187;50.976;13.720;2022-09-29T19:00:52;97226.47;;;15.36;45.30
34983;BME280;21187;50.976;13.720;2022-09-29T19:05:56;97236.91;;;15.45;45.37
34983;BME280;21187;50.976;13.720;2022-09-29T19:10:57;97245.06;;;15.48;45.38
34983;BME280;21187;50.976;13.720;2022-09-29T19:16:01;97248.19;;;15.47;45.77
34983;BME280;21187;50.976;13.720;2022-09-29T19:21:09;97255.25;;;15.44;45.63
34983;BME280;21187;50.976;13.720;2022-09-29T19:26:15;97257.97;;;15.44;45.90
34983;BME280;21187;50.976;13.720;2022-09-29T19:31:19;97257.56;;;15.46;46.11
34983;BME280;21187;50.976;13.720;2022-09-29T19:36:21;97266.94;;;15.41;46.09
34983;BME280;21187;50.976;13.720;2022-09-29T19:41:24;97270.88;;;15.40;46.26
34983;BME280;21187;50.976;13.720;2022-09-29T19:46:26;97277.50;;;15.39;46.35
34983;BME280;21187;50.976;13.720;2022-09-29T19:51:28;97282.97;;;15.36;46.24
34983;BME280;21187;50.976;13.720;2022-09-29T19:56:53;97277.13;;;15.37;46.39
34983;BME280;21187;50.976;13.720;2022-09-29T20:01:56;97286.50;;;15.36;46.40
34983;BME280;21187;50.976;13.720;2022-09-29T20:06:59;97280.28;;;15.32;46.59
34983;BME280;21187;50.976;13.720;2022-09-29T20:12:01;97290.50;;;15.24;46.60
34983;BME280;21187;50.976;13.720;2022-09-29T20:17:03;97301.47;;;15.13;47.29
34983;BME280;21187;50.976;13.720;2022-09-29T20:22:05;97304.25;;;15.06;47.04
34983;BME280;21187;50.976;13.720;2022-09-29T20:27:08;97304.69;;;15.01;47.26
34983;BME280;21187;50.976;13.720;2022-09-29T20:32:11;97323.84;;;14.94;47.31
34983;BME280;21187;50.976;13.720;2022-09-29T20:37:13;97328.16;;;14.88;47.57
34983;BME280;21187;50.976;13.720;2022-09-29T20:42:16;97327.47;;;14.73;47.52
34983;BME280;21187;50.976;13.720;2022-09-29T20:47:18;97336.06;;;14.57;48.19
34983;BME280;21187;50.976;13.720;2022-09-29T20:52:20;97340.41;;;14.43;47.94
34983;BME280;21187;50.976;13.720;2022-09-29T20:57:22;97346.25;;;14.38;48.05
34983;BME280;21187;50.976;13.720;2022-09-29T21:02:24;97342.78;;;14.34;48.24
34983;BME280;21187;50.976;13.720;2022-09-29T21:07:26;97347.84;;;14.25;48.31
34983;BME280;21187;50.976;13.720;2022-09-29T21:12:37;97358.78;;;14.18;48.31
34983;BME280;21187;50.976;13.720;2022-09-29T21:17:39;97368.13;;;14.09;48.23
34983;BME280;21187;50.976;13.720;2022-09-29T21:22:41;97374.38;;;14.06;48.41
34983;BME280;21187;50.976;13.720;2022-09-29T21:27:43;97380.19;;;14.01;48.08
34983;BME280;21187;50.976;13.720;2022-09-29T21:32:44;97379.06;;;13.95;48.34
34983;BME280;21187;50.976;13.720;2022-09-29T21:37:46;97385.66;;;13.87;48.31
34983;BME280;21187;50.976;13.720;2022-09-29T21:42:49;97389.97;;;13.77;48.29
34983;BME280;21187;50.976;13.720;2022-09-29T21:47:51;97384.91;;;13.68;48.66
34983;BME280;21187;50.976;13.720;2022-09-29T21:53:11;97383.34;;;13.45;49.01
34983;BME280;21187;50.976;13.720;2022-09-29T21:58:13;97381.34;;;13.13;49.69
34983;BME280;21187;50.976;13.720;2022-09-29T22:03:15;97386.72;;;12.92;50.34
34983;BME280;21187;50.976;13.720;2022-09-29T22:08:17;97389.84;;;13.01;49.74
34983;BME280;21187;50.976;13.720;2022-09-29T22:13:20;97392.97;;;12.96;49.67
34983;BME280;21187;50.976;13.720;2022-09-29T22:18:25;97395.25;;;12.83;49.97
34983;BME280;21187;50.976;13.720;2022-09-29T22:23:42;97402.25;;;12.80;50.31
34983;BME280;21187;50.976;13.720;2022-09-29T22:28:44;97401.50;;;12.91;50.11
34983;BME280;21187;50.976;13.720;2022-09-29T22:33:46;97410.44;;;13.02;49.56
34983;BME280;21187;50.976;13.720;2022-09-29T22:38:48;97410.47;;;13.06;49.57
34983;BME280;21187;50.976;13.720;2022-09-29T22:43:52;97413.97;;;13.13;49.35
34983;BME280;21187;50.976;13.720;2022-09-29T22:48:54;97420.97;;;13.14;49.41
34983;BME280;21187;50.976;13.720;2022-09-29T22:53:56;97415.53;;;13.14;49.57
34983;BME280;21187;50.976;13.720;2022-09-29T22:59:00;97407.00;;;13.20;49.79
34983;BME280;21187;50.976;13.720;2022-09-29T23:04:02;97407.75;;;13.17;49.55
34983;BME280;21187;50.976;13.720;2022-09-29T23:09:05;97420.97;;;13.14;49.92
34983;BME280;21187;50.976;13.720;2022-09-29T23:14:07;97428.34;;;13.18;50.04
34983;BME280;21187;50.976;13.720;2022-09-29T23:19:09;97419.41;;;13.21;49.82
34983;BME280;21187;50.976;13.720;2022-09-29T23:24:11;97423.31;;;13.23;50.03
34983;BME280;21187;50.976;13.720;2022-09-29T23:29:13;97419.44;;;13.28;49.92
34983;BME280;21187;50.976;13.720;2022-09-29T23:34:15;97421.38;;;13.31;50.18
34983;BME280;21187;50.976;13.720;2022-09-29T23:39:18;97426.44;;;13.29;49.94
34983;BME280;21187;50.976;13.720;2022-09-29T23:44:22;97428.34;;;13.18;50.37
34983;BME280;21187;50.976;13.720;2022-09-29T23:49:26;97425.59;;;13.03;50.98
34983;BME280;21187;50.976;13.720;2022-09-29T23:54:29;97427.16;;;13.01;51.01
34983;BME280;21187;50.976;13.720;2022-09-29T23:59:31;97413.94;;;13.06;51.01
